Ambia, Indiana
Current Conditions -  °F | °C
As of 10:55 AM on Sunday 25 Jan 2015 (Local Time) from KDNV Reporting Station
Light Rain Light Rain  
Wind Chill: 30°   Ceiling: 2600
Heat Index: 35°   Visibility: 5mi
Dew Point: 34°   Wind: 6mph
Humidity: 96%   Direction: 100°E
Pressure: 29.64"   Gusts: NA
Location:  40.49°N, 87.52°W
Report Text: KDNV 251555Z AUTO 10005KT 5SM -RA BKN026 OVC045 02/01 A2964 RMK AO2 T00150009
Loading
Personal Weather Stations






























Interactive Weather Map New forecast layout! Learn more

10-Day Weather Forecast

Advertisements
Track Severe Weather on mobile